Quick Links (Output Below):   Max & Min Temps   /   Climate Reports   /   Zone Forecasts
River Forecasts   /   Forestry Forecasts   /   Aviation Forecasts   /   Radars   /   Features

Terminal Aerodrome Forecast (Fayetteville)

Pick a Site:
Arkadelphia | El Dorado | Fayetteville | Fort Smith | Harrison | Highfill | Hot Springs | Jonesboro
Little Rock | Monticello | Mountain Home | Pine Bluff | Texarkana
 Forecast 

KFYV 232320Z 2400/2424 02003KT P6SM SCT250
     FM241500 07005KT P6SM SCT050=


 Latest METARs (Observations) 
How to Decode METARs
00Z KFYV 232353Z 17005KT 10SM CLR 24/19 A3009 RMK AO2 SLP176 60013
         T02440189 10339 20211 55001
         
***** Today's Observations (Above) *****


23Z KFYV 232253Z 10003KT 10SM CLR 26/19 A3007 RMK AO2 SLP168
         T02610194
         
22Z KFYV 232153Z 00000KT 10SM CLR 27/18 A3006 RMK AO2 SLP166
         T02720178
         
21Z KFYV 232053Z 29007KT 10SM BKN110 25/18 A3009 RMK AO2 PK WND
         33030/1957 RAE00 SLP176 P0000 60013 T02500183 53002
         
20Z KFYV 231953Z 32019G28KT 10SM -RA SCT035 BKN065 BKN080 22/21 A3009
         RMK AO2 PK WND 32053/1902 LTG DSNT SE-SW TSB1854E40RAB09
         PRESFR SLP176 P0013 T02220211
         
19Z KFYV 231853Z 30009KT 9SM SCT035 BKN045 33/25 A3007 RMK AO2 LTG
         DSNT W AND NW SLP165 T03280250
         
18Z KFYV 231753Z 30010KT 10SM SCT035 33/24 A3009 RMK AO2 SLP171
         T03330244 10333 20222 58014
         
17Z KFYV 231653Z 32008KT 10SM FEW028 31/24 A3010 RMK AO2 SLP176
         T03110244
         
16Z KFYV 231553Z 26005KT 9SM CLR 30/24 A3011 RMK AO2 SLP180
         T03000244
         
15Z KFYV 231453Z 31007KT 8SM CLR 29/24 A3013 RMK AO2 SLP185 T02890239
         50003
         
***** Yesterday's Observations (Above) *****


Back to Main Page
http://www.srh.noaa.gov/lzk/qfcst.php

USA.gov is the U.S. government's official web portal to all federal, state and local government web resources and services.